Bratislava, Slovensko

16:00 CEST 21. Srpen 2014 (GMT +0200)
IBRATISL5 | Change Station
CLOSE
Current Station
Osobní povětrnostní stanice
Location: Most Pri Bratislave, BRATISLAVSKy KRAJ
Nadmořská výška: 436 ft
Poblíž povětrnostní stanice

Výška 436 ft 48.14 °N, 17.27 °E | Updated 7 seconds ago

Scattered Clouds
Polojasno
68.4 °F
Pocit jako 68.4 °F
S
5.8
Vítr proměnlivý Vítr od ZSZ
Gusts 5.9 mil/h

Dnes
Vysoké -- | Nízké -- °F
--% Možnost srážek
Včera
Vysoké -- | Nízké -- °F
Precip. -- inčů
5:53 AM 7:54 PM
Ubývající srpek, 14% visible
Tlak 30.04 inčů
Viditelnost 6.2 mílí
Zataženo Nemnoho 4200 ft
Polojasno 10000 ft
Rosný bod 63 °F
Vlhkost 82%
Dešťové srážky 0.23 inčů
Sněhová pokrývka Není k dispozici
UV záření 0.0 ze 12
Pyl Není k dispozici
Kvalita ovzduší Není k dispozici
Flu Activity Není k dispozici
METAR LOWW 211350Z 03006KT 350V060 9999 FEW042 SCT100 20/11 Q1017 NOSIG

More Conditions Fewer Conditions

Tlak 30.04 inčů
Viditelnost 6.2 mílí
Zataženo Nemnoho 4200 ft
Polojasno 10000 ft
Rosný bod 63 °F
Vlhkost 82%
Dešťové srážky 0.23 inčů
Sněhová pokrývka Není k dispozici
UV záření 0.0 ze 12
Pyl Není k dispozici
Kvalita ovzduší Není k dispozici
Flu Activity Není k dispozici
METAR LOWW 211350Z 03006KT 350V060 9999 FEW042 SCT100 20/11 Q1017 NOSIG

More Conditions Fewer Conditions

10-Day Weather Forecast

Almanac

Astronomie

Aug. 21, 2014 Východ Západ
Skutečný čas 05:53 CEST 19:54 CEST
Občanský soumrak 05:19 CEST 20:27 CEST
Námořní soumrak 04:38 CEST 21:09 CEST
Astronomický soumrak 03:51 CEST 21:55 CEST
Měsíc 02:00 CEST 17:17 CEST
Délka denního světla 15h 08m
Délka dne
14h 00m
Tomorrow will be 3m 15s shorter.
Ubývající srpek, 14% of the Moon is Illuminated
Dnes
Ubývající srpek
Srp 25
Nov
Zář 2
První čtvrť
Zář 8
Úplněk
Zář 15
Ubývající

Včerejší extrémy

Nejvyšší hodnoty ve státě Nejnižší hodnoty ve státě

Community

WunderPhotos

Upload Photos

1,745,925 snímků staženo!

WunderBlogs® & News

Nearby

Výška sněhu

Not available.

Seizmická činnost

Město Distance Mag. Čas & datum
Žádné zemětřesení v okolí nebylo hlášeno
Minimální zobrazený rozsah je 2.5.

Pobřežní teplota vody

Lokalita Teplota
Stanice nic nehlásí

Poblíž povětrnostní stanice